Monday, March 30, 2015
01:06 UTC
  |  Log In   |  Register Free
Airport Search:

South Alabama Regional At Bill Benton Field Airport
(K79J)

South Alabama Regional At Bill Benton Field Airport Diagram
No Airport Diagram Available

FAA data valid effective March 05, 2015 - April 30, 2015 (unless otherwise noted).

 
 
 
 
 
 
 
 
 
 
 
 
 
 

Current Aviation Weather for South Alabama Regional At Bill Benton Field Airport (K79J)

The most recent METAR observation for K79J was updated at: 1407
METAR Summary (Translated METAR)
K79J
251356Z AUTO 14005KT 10SM OVC060 19/14 A3015 RMK AO2 SLP208 T01890139
K0J4
251358Z AUTO 09003KT 10SM OVC060 17/14 A3017 RMK AO2 SLP213 T01670144
(16.5 nm SE from K79J)
KEDN
251355Z AUTO 06004KT 10SM OVC055 16/13 A3015 RMK AO2
(25.3 nm SE from K79J)
TAF
No TAF information found within 50 nm of KCEW
  Airport Weather Conditions for K79J

 Current Weather at 79J
72° F
Fair
Variable winds at 4.6 mph
79J NOAA Radar

Pressure: 30.23 in
Humidity: 33%
Wind: Variable at 4.6 MPH (4 KT)
Dew Point: 41.0°F
Visibility: 10.00 mi


Airport Weather Forecast for K79J

Translated METAR and TAF for KCEW
Translated METAR for KCEW (0106 UTC 30 March 2015)
found at http://aviationweather.gov/adds/metars/
 
METAR text: KCEW 300053Z AUTO 18003KT 10SM CLR 14/08 A3030 RMK AO2 SLP258 T01390078
Conditions at: KCEW (CRESTVIEW , FL, US) observed 0053 UTC 30 March 2015
Temperature: 13.9°C (57°F)
Dewpoint: 7.8°C (46°F) [RH = 67%]
Pressure (altimeter): 30.30 inches Hg (1026.2 mb)
[Sea-level pressure: 1025.8 mb]
Winds: from the S (180 degrees) at 3 MPH (3 knots; 1.6 m/s)
Visibility: 10 or more miles (16+ km)
Ceiling: at least 12,000 feet AGL
Clouds: sky clear below 12,000 feet AGL
Weather: automated observation with no human augmentation;
there may or may not be significant weather present at this time
Translated TAF for KCEW

There is no translated TAF available for this airport

Find All Airport Services Find A Hotel Find A Rental Car Find A Golf Course Find A Restaurant $100 Hamburger



FBO's on the Field
FBO Company Facility Photos Services Transportation Aviation Fuel Prices: Prices include tax
Catering Weather Repair Courtesy Rental Type 100LL JetA JetA+ MOGAS 8087
 
South Alabama Regional Airport

This FBO has not yet been rated
FS:Phillips 66
Last Updated: Mar-26
Login to update fuel prices
SS:
Contact South Alabama Regional AirportMore FBO Information
 
Add another FBO Facility Photos Catering Weather Repair Courtesy Rental Type 100LL JetA JetA+ MOGAS 8087
Services Transportation Aviation Fuel Prices: Prices include tax


model-print
model-print
model-print
model-print